To NAV CANADA Home Page Login to a new session Search on AWWS site Feedback and Comments Disclaimer Vers la page française équivalente Tips FAQ What's new on the site To the Forecasts and Observations / NOTAM section To "File a Flight Plan" website Publications and other links Update of the User's profile FIC Telephone Numbers My Weather Data Folder Route Weather Data Regional Weather Data Local Weather Data To the Forecasts and Observations / NOTAM section
Request Generated 06/26/2017 at 03:39:52 UTC . Weather information available at that time is displayed.

METAR/TAF

KINGSTON/ON    

METAR CYGK 260300Z 25005KT 15SM FEW007 FEW040 14/11 A2994 RMK SF1SC1
SF TR LAST STFD OBS/NEXT 261000UTC SLP141=
METAR CYGK 260200Z 31005KT 15SM VCSH FEW007 FEW040 FEW250 14/11 A2993
RMK SF1SC1CI1 SF TR SLP138=
METAR CYGK 260100Z 32003KT 15SM -RA FEW015 FEW030TCU BKN055 BKN095
16/10 A2992 RMK CF1TCU1SC5AC1 CF TR TCU TR SLP134 DENSITY ALT 500FT=

*** REMARK        : Forecast period has ended; this was the last TAF issued
*** REMARQUE : La période de prévision est échue; ceci était le dernier TAF qui a été émis
TAF CYGK 251941Z 2520/2603 23012G22KT P6SM SCT040 TEMPO 2520/2603
P6SM -SHRA BKN040 PROB40 2521/2601 VRB20G35KT 1SM +TSRA BR
BKN020 OVC040CB
RMK NXT FCST WILL BE ISSUED AT 261145Z=
Your time UTC time
Weather data provided by Environment Canada and NAV CANADA